sensor_id;sensor_type;location;lat;lon;timestamp;temperature;humidity
39315;DHT22;28703;44.412;11.918;2023-08-06T00:00:39;19.70;99.90
39315;DHT22;28703;44.412;11.918;2023-08-06T00:03:05;19.70;99.90
39315;DHT22;28703;44.412;11.918;2023-08-06T00:05:31;19.60;99.90
39315;DHT22;28703;44.412;11.918;2023-08-06T00:07:57;19.60;99.90
39315;DHT22;28703;44.412;11.918;2023-08-06T00:10:23;19.60;99.90
39315;DHT22;28703;44.412;11.918;2023-08-06T00:12:49;19.60;99.90
39315;DHT22;28703;44.412;11.918;2023-08-06T00:15:14;19.60;99.90
39315;DHT22;28703;44.412;11.918;2023-08-06T00:17:40;19.50;99.90
39315;DHT22;28703;44.412;11.918;2023-08-06T00:20:07;19.50;99.90
39315;DHT22;28703;44.412;11.918;2023-08-06T00:22:36;19.50;99.90
39315;DHT22;28703;44.412;11.918;2023-08-06T00:25:03;19.50;99.90
39315;DHT22;28703;44.412;11.918;2023-08-06T00:27:29;19.50;99.90
39315;DHT22;28703;44.412;11.918;2023-08-06T00:29:55;19.50;99.90
39315;DHT22;28703;44.412;11.918;2023-08-06T00:32:21;19.40;99.90
39315;DHT22;28703;44.412;11.918;2023-08-06T00:34:47;19.40;99.90
39315;DHT22;28703;44.412;11.918;2023-08-06T00:37:16;19.40;99.90
39315;DHT22;28703;44.412;11.918;2023-08-06T00:39:43;19.40;99.90
39315;DHT22;28703;44.412;11.918;2023-08-06T00:42:10;19.40;99.90
39315;DHT22;28703;44.412;11.918;2023-08-06T00:44:36;19.40;99.90
39315;DHT22;28703;44.412;11.918;2023-08-06T00:47:02;19.40;99.90
39315;DHT22;28703;44.412;11.918;2023-08-06T00:49:28;19.40;99.90
39315;DHT22;28703;44.412;11.918;2023-08-06T00:51:56;19.40;99.90
39315;DHT22;28703;44.412;11.918;2023-08-06T00:54:23;19.40;99.90
39315;DHT22;28703;44.412;11.918;2023-08-06T00:56:49;19.40;99.90
39315;DHT22;28703;44.412;11.918;2023-08-06T00:59:15;19.40;99.90
39315;DHT22;28703;44.412;11.918;2023-08-06T01:01:41;19.30;99.90
39315;DHT22;28703;44.412;11.918;2023-08-06T01:04:07;19.30;99.90
39315;DHT22;28703;44.412;11.918;2023-08-06T01:06:41;19.30;99.90
39315;DHT22;28703;44.412;11.918;2023-08-06T01:15:03;19.30;99.90
39315;DHT22;28703;44.412;11.918;2023-08-06T01:17:30;19.30;99.90
39315;DHT22;28703;44.412;11.918;2023-08-06T01:19:56;19.30;99.90
39315;DHT22;28703;44.412;11.918;2023-08-06T01:22:22;19.30;99.90
39315;DHT22;28703;44.412;11.918;2023-08-06T01:24:50;19.30;99.90
39315;DHT22;28703;44.412;11.918;2023-08-06T01:27:37;19.30;99.90
39315;DHT22;28703;44.412;11.918;2023-08-06T01:30:12;19.30;99.90
39315;DHT22;28703;44.412;11.918;2023-08-06T01:32:42;19.30;99.90
39315;DHT22;28703;44.412;11.918;2023-08-06T01:35:10;19.30;99.90
39315;DHT22;28703;44.412;11.918;2023-08-06T01:37:37;19.30;99.90
39315;DHT22;28703;44.412;11.918;2023-08-06T01:40:11;19.20;99.90
39315;DHT22;28703;44.412;11.918;2023-08-06T01:42:39;19.20;99.90
39315;DHT22;28703;44.412;11.918;2023-08-06T01:45:08;19.20;99.90
39315;DHT22;28703;44.412;11.918;2023-08-06T01:47:35;19.20;99.90
39315;DHT22;28703;44.412;11.918;2023-08-06T01:50:01;19.20;99.90
39315;DHT22;28703;44.412;11.918;2023-08-06T01:52:28;19.20;99.90
39315;DHT22;28703;44.412;11.918;2023-08-06T01:54:54;19.20;99.90
39315;DHT22;28703;44.412;11.918;2023-08-06T01:57:20;19.10;99.90
39315;DHT22;28703;44.412;11.918;2023-08-06T01:59:46;19.10;99.90
39315;DHT22;28703;44.412;11.918;2023-08-06T02:02:12;19.10;99.90
39315;DHT22;28703;44.412;11.918;2023-08-06T02:04:38;19.10;99.90
39315;DHT22;28703;44.412;11.918;2023-08-06T02:07:04;19.10;99.90
39315;DHT22;28703;44.412;11.918;2023-08-06T02:09:30;19.10;99.90
39315;DHT22;28703;44.412;11.918;2023-08-06T02:11:56;19.10;99.90
39315;DHT22;28703;44.412;11.918;2023-08-06T02:14:23;19.10;99.90
39315;DHT22;28703;44.412;11.918;2023-08-06T02:16:48;19.10;99.90
39315;DHT22;28703;44.412;11.918;2023-08-06T02:19:15;19.10;99.90
39315;DHT22;28703;44.412;11.918;2023-08-06T02:21:41;19.10;99.90
39315;DHT22;28703;44.412;11.918;2023-08-06T02:24:06;19.00;99.90
39315;DHT22;28703;44.412;11.918;2023-08-06T02:26:32;19.00;99.90
39315;DHT22;28703;44.412;11.918;2023-08-06T02:28:58;19.00;99.90
39315;DHT22;28703;44.412;11.918;2023-08-06T02:31:24;19.00;99.90
39315;DHT22;28703;44.412;11.918;2023-08-06T02:33:50;19.00;99.90
39315;DHT22;28703;44.412;11.918;2023-08-06T02:36:17;19.00;99.90
39315;DHT22;28703;44.412;11.918;2023-08-06T02:38:42;18.90;99.90
39315;DHT22;28703;44.412;11.918;2023-08-06T02:41:08;18.90;99.90
39315;DHT22;28703;44.412;11.918;2023-08-06T02:43:34;18.90;99.90
39315;DHT22;28703;44.412;11.918;2023-08-06T02:46:01;18.80;99.90
39315;DHT22;28703;44.412;11.918;2023-08-06T02:48:27;18.90;99.90
39315;DHT22;28703;44.412;11.918;2023-08-06T02:50:57;18.80;99.90
39315;DHT22;28703;44.412;11.918;2023-08-06T02:53:23;18.80;99.90
39315;DHT22;28703;44.412;11.918;2023-08-06T02:55:49;18.70;99.90
39315;DHT22;28703;44.412;11.918;2023-08-06T02:58:19;18.70;99.90
39315;DHT22;28703;44.412;11.918;2023-08-06T03:01:06;18.70;99.90
39315;DHT22;28703;44.412;11.918;2023-08-06T03:03:41;18.70;99.90
39315;DHT22;28703;44.412;11.918;2023-08-06T03:06:07;18.70;99.90
39315;DHT22;28703;44.412;11.918;2023-08-06T03:08:43;18.70;99.90
39315;DHT22;28703;44.412;11.918;2023-08-06T03:11:09;18.70;99.90
39315;DHT22;28703;44.412;11.918;2023-08-06T03:13:35;18.70;99.90
39315;DHT22;28703;44.412;11.918;2023-08-06T03:16:01;18.70;99.90
39315;DHT22;28703;44.412;11.918;2023-08-06T03:18:29;18.70;99.90
39315;DHT22;28703;44.412;11.918;2023-08-06T03:20:58;18.70;99.90
39315;DHT22;28703;44.412;11.918;2023-08-06T03:23:27;18.70;99.90
39315;DHT22;28703;44.412;11.918;2023-08-06T03:25:53;18.70;99.90
39315;DHT22;28703;44.412;11.918;2023-08-06T03:28:19;18.80;99.90
39315;DHT22;28703;44.412;11.918;2023-08-06T03:30:46;18.70;99.90
39315;DHT22;28703;44.412;11.918;2023-08-06T03:33:13;18.80;99.90
39315;DHT22;28703;44.412;11.918;2023-08-06T03:35:39;18.80;99.90
39315;DHT22;28703;44.412;11.918;2023-08-06T03:38:06;18.80;99.90
39315;DHT22;28703;44.412;11.918;2023-08-06T03:40:34;18.80;99.90
39315;DHT22;28703;44.412;11.918;2023-08-06T03:43:00;18.80;99.90
39315;DHT22;28703;44.412;11.918;2023-08-06T03:45:26;18.80;99.90
39315;DHT22;28703;44.412;11.918;2023-08-06T03:47:52;18.80;99.90
39315;DHT22;28703;44.412;11.918;2023-08-06T03:50:18;18.80;99.90
39315;DHT22;28703;44.412;11.918;2023-08-06T03:52:43;18.80;99.90
39315;DHT22;28703;44.412;11.918;2023-08-06T03:55:10;18.80;99.90
39315;DHT22;28703;44.412;11.918;2023-08-06T03:57:36;18.80;99.90
39315;DHT22;28703;44.412;11.918;2023-08-06T04:00:03;18.80;99.90
39315;DHT22;28703;44.412;11.918;2023-08-06T04:02:40;18.80;99.90
39315;DHT22;28703;44.412;11.918;2023-08-06T04:05:07;18.80;99.90
39315;DHT22;28703;44.412;11.918;2023-08-06T04:07:33;18.80;99.90
39315;DHT22;28703;44.412;11.918;2023-08-06T04:10:00;18.80;99.90
39315;DHT22;28703;44.412;11.918;2023-08-06T04:12:27;18.90;99.90
39315;DHT22;28703;44.412;11.918;2023-08-06T04:14:54;18.80;99.90
39315;DHT22;28703;44.412;11.918;2023-08-06T04:17:20;18.80;99.90
39315;DHT22;28703;44.412;11.918;2023-08-06T04:19:51;18.80;99.90
39315;DHT22;28703;44.412;11.918;2023-08-06T04:22:17;18.80;99.90
39315;DHT22;28703;44.412;11.918;2023-08-06T04:24:44;18.80;99.90
39315;DHT22;28703;44.412;11.918;2023-08-06T04:27:11;18.90;99.90
39315;DHT22;28703;44.412;11.918;2023-08-06T04:29:38;18.90;99.90
39315;DHT22;28703;44.412;11.918;2023-08-06T04:32:06;18.90;99.90
39315;DHT22;28703;44.412;11.918;2023-08-06T04:34:33;18.90;99.90
39315;DHT22;28703;44.412;11.918;2023-08-06T04:37:00;18.90;99.90
39315;DHT22;28703;44.412;11.918;2023-08-06T04:39:26;18.90;99.90
39315;DHT22;28703;44.412;11.918;2023-08-06T04:41:52;18.90;99.90
39315;DHT22;28703;44.412;11.918;2023-08-06T04:44:18;18.90;99.90
39315;DHT22;28703;44.412;11.918;2023-08-06T04:46:44;18.90;99.90
39315;DHT22;28703;44.412;11.918;2023-08-06T04:49:09;19.00;99.90
39315;DHT22;28703;44.412;11.918;2023-08-06T04:51:35;19.00;99.90
39315;DHT22;28703;44.412;11.918;2023-08-06T04:54:01;19.00;99.90
39315;DHT22;28703;44.412;11.918;2023-08-06T04:56:27;19.00;99.90
39315;DHT22;28703;44.412;11.918;2023-08-06T04:58:53;19.00;99.90
39315;DHT22;28703;44.412;11.918;2023-08-06T05:01:19;19.00;99.90
39315;DHT22;28703;44.412;11.918;2023-08-06T05:03:45;19.10;99.90
39315;DHT22;28703;44.412;11.918;2023-08-06T05:06:10;19.10;99.90
39315;DHT22;28703;44.412;11.918;2023-08-06T05:08:36;19.10;99.90
39315;DHT22;28703;44.412;11.918;2023-08-06T05:11:02;19.10;99.90
39315;DHT22;28703;44.412;11.918;2023-08-06T05:13:28;19.20;99.90
39315;DHT22;28703;44.412;11.918;2023-08-06T05:15:54;19.20;99.90
39315;DHT22;28703;44.412;11.918;2023-08-06T05:18:20;19.20;99.90
39315;DHT22;28703;44.412;11.918;2023-08-06T05:20:46;19.30;99.90
39315;DHT22;28703;44.412;11.918;2023-08-06T05:23:12;19.30;99.90
39315;DHT22;28703;44.412;11.918;2023-08-06T05:25:38;19.30;99.90
39315;DHT22;28703;44.412;11.918;2023-08-06T05:28:04;19.40;99.90
39315;DHT22;28703;44.412;11.918;2023-08-06T05:30:30;19.50;99.90
39315;DHT22;28703;44.412;11.918;2023-08-06T05:32:56;19.50;99.90
39315;DHT22;28703;44.412;11.918;2023-08-06T05:35:23;19.50;99.90
39315;DHT22;28703;44.412;11.918;2023-08-06T05:37:50;19.60;99.90
39315;DHT22;28703;44.412;11.918;2023-08-06T05:40:16;19.60;99.90
39315;DHT22;28703;44.412;11.918;2023-08-06T05:42:42;19.60;99.90
39315;DHT22;28703;44.412;11.918;2023-08-06T05:45:08;19.70;99.90
39315;DHT22;28703;44.412;11.918;2023-08-06T05:47:35;19.70;99.90
39315;DHT22;28703;44.412;11.918;2023-08-06T05:50:01;19.70;99.90
39315;DHT22;28703;44.412;11.918;2023-08-06T05:52:27;19.80;99.90
39315;DHT22;28703;44.412;11.918;2023-08-06T05:54:53;19.90;99.90
39315;DHT22;28703;44.412;11.918;2023-08-06T05:57:20;19.90;99.90
39315;DHT22;28703;44.412;11.918;2023-08-06T05:59:46;20.00;99.90
39315;DHT22;28703;44.412;11.918;2023-08-06T06:02:12;20.00;99.90
39315;DHT22;28703;44.412;11.918;2023-08-06T06:04:38;20.10;99.90
39315;DHT22;28703;44.412;11.918;2023-08-06T06:07:04;20.20;99.90
39315;DHT22;28703;44.412;11.918;2023-08-06T06:09:30;20.20;99.90
39315;DHT22;28703;44.412;11.918;2023-08-06T06:11:56;20.20;99.90
39315;DHT22;28703;44.412;11.918;2023-08-06T06:14:22;20.30;99.90
39315;DHT22;28703;44.412;11.918;2023-08-06T06:16:47;20.40;99.90
39315;DHT22;28703;44.412;11.918;2023-08-06T06:19:13;20.40;99.90
39315;DHT22;28703;44.412;11.918;2023-08-06T06:21:40;20.40;99.90
39315;DHT22;28703;44.412;11.918;2023-08-06T06:24:06;20.40;99.90
39315;DHT22;28703;44.412;11.918;2023-08-06T06:26:33;20.50;99.90
39315;DHT22;28703;44.412;11.918;2023-08-06T06:28:58;20.60;99.90
39315;DHT22;28703;44.412;11.918;2023-08-06T06:31:25;20.70;99.90
39315;DHT22;28703;44.412;11.918;2023-08-06T06:33:51;20.70;99.90
39315;DHT22;28703;44.412;11.918;2023-08-06T06:36:19;20.80;99.90
39315;DHT22;28703;44.412;11.918;2023-08-06T06:38:45;20.90;99.90
39315;DHT22;28703;44.412;11.918;2023-08-06T06:41:10;21.00;99.90
39315;DHT22;28703;44.412;11.918;2023-08-06T06:43:37;21.10;99.90
39315;DHT22;28703;44.412;11.918;2023-08-06T06:46:05;21.10;99.90
39315;DHT22;28703;44.412;11.918;2023-08-06T06:48:32;21.20;99.90
39315;DHT22;28703;44.412;11.918;2023-08-06T06:50:59;21.20;99.90
39315;DHT22;28703;44.412;11.918;2023-08-06T06:53:25;21.30;99.90
39315;DHT22;28703;44.412;11.918;2023-08-06T06:56:01;21.30;99.90
39315;DHT22;28703;44.412;11.918;2023-08-06T06:58:27;21.30;99.90
39315;DHT22;28703;44.412;11.918;2023-08-06T07:00:53;21.30;99.90
39315;DHT22;28703;44.412;11.918;2023-08-06T07:03:20;21.40;99.90
39315;DHT22;28703;44.412;11.918;2023-08-06T07:05:46;21.40;99.90
39315;DHT22;28703;44.412;11.918;2023-08-06T07:08:12;21.40;99.90
39315;DHT22;28703;44.412;11.918;2023-08-06T07:10:38;21.50;99.90
39315;DHT22;28703;44.412;11.918;2023-08-06T07:13:04;21.50;99.90
39315;DHT22;28703;44.412;11.918;2023-08-06T07:15:30;21.50;99.90
39315;DHT22;28703;44.412;11.918;2023-08-06T07:17:56;21.60;99.90
39315;DHT22;28703;44.412;11.918;2023-08-06T07:20:21;21.60;99.90
39315;DHT22;28703;44.412;11.918;2023-08-06T07:22:47;21.70;99.90
39315;DHT22;28703;44.412;11.918;2023-08-06T07:25:13;21.70;99.90
39315;DHT22;28703;44.412;11.918;2023-08-06T07:27:39;21.70;99.90
39315;DHT22;28703;44.412;11.918;2023-08-06T07:30:05;21.80;99.90
39315;DHT22;28703;44.412;11.918;2023-08-06T07:32:32;21.80;99.90
39315;DHT22;28703;44.412;11.918;2023-08-06T07:34:58;21.80;99.90
39315;DHT22;28703;44.412;11.918;2023-08-06T07:37:29;21.80;99.90
39315;DHT22;28703;44.412;11.918;2023-08-06T07:39:58;21.80;99.90
39315;DHT22;28703;44.412;11.918;2023-08-06T07:42:24;21.80;99.90
39315;DHT22;28703;44.412;11.918;2023-08-06T07:44:55;21.90;99.90
39315;DHT22;28703;44.412;11.918;2023-08-06T07:47:21;22.00;99.90
39315;DHT22;28703;44.412;11.918;2023-08-06T07:49:47;22.00;99.90
39315;DHT22;28703;44.412;11.918;2023-08-06T07:52:14;22.10;99.90
39315;DHT22;28703;44.412;11.918;2023-08-06T07:54:40;22.10;99.90
39315;DHT22;28703;44.412;11.918;2023-08-06T07:57:06;22.20;99.90
39315;DHT22;28703;44.412;11.918;2023-08-06T07:59:32;22.20;99.90
39315;DHT22;28703;44.412;11.918;2023-08-06T08:01:58;22.20;99.90
39315;DHT22;28703;44.412;11.918;2023-08-06T08:04:24;22.30;99.90
39315;DHT22;28703;44.412;11.918;2023-08-06T08:06:50;22.30;99.90
39315;DHT22;28703;44.412;11.918;2023-08-06T08:09:16;22.30;99.90
39315;DHT22;28703;44.412;11.918;2023-08-06T08:11:42;22.30;99.90
39315;DHT22;28703;44.412;11.918;2023-08-06T08:14:08;22.30;99.90
39315;DHT22;28703;44.412;11.918;2023-08-06T08:16:34;22.40;99.50
39315;DHT22;28703;44.412;11.918;2023-08-06T08:19:00;22.40;98.40
39315;DHT22;28703;44.412;11.918;2023-08-06T08:21:26;22.50;98.20
39315;DHT22;28703;44.412;11.918;2023-08-06T08:23:52;22.60;98.10
39315;DHT22;28703;44.412;11.918;2023-08-06T08:26:18;22.60;97.90
39315;DHT22;28703;44.412;11.918;2023-08-06T08:28:44;22.60;97.40
39315;DHT22;28703;44.412;11.918;2023-08-06T08:31:11;22.70;97.40
39315;DHT22;28703;44.412;11.918;2023-08-06T08:33:38;22.70;97.60
39315;DHT22;28703;44.412;11.918;2023-08-06T08:36:04;22.80;97.70
39315;DHT22;28703;44.412;11.918;2023-08-06T08:38:30;22.90;97.10
39315;DHT22;28703;44.412;11.918;2023-08-06T08:40:56;22.90;96.20
39315;DHT22;28703;44.412;11.918;2023-08-06T08:43:22;23.00;96.00
39315;DHT22;28703;44.412;11.918;2023-08-06T08:45:53;23.10;95.20
39315;DHT22;28703;44.412;11.918;2023-08-06T08:48:21;23.10;95.10
39315;DHT22;28703;44.412;11.918;2023-08-06T08:50:49;23.20;94.90
39315;DHT22;28703;44.412;11.918;2023-08-06T08:53:16;23.30;95.00
39315;DHT22;28703;44.412;11.918;2023-08-06T08:55:48;23.30;94.60
39315;DHT22;28703;44.412;11.918;2023-08-06T08:58:15;23.40;94.30
39315;DHT22;28703;44.412;11.918;2023-08-06T09:00:46;23.50;94.70
39315;DHT22;28703;44.412;11.918;2023-08-06T09:03:14;23.50;94.20
39315;DHT22;28703;44.412;11.918;2023-08-06T09:05:44;23.60;94.40
39315;DHT22;28703;44.412;11.918;2023-08-06T09:08:11;23.60;94.40
39315;DHT22;28703;44.412;11.918;2023-08-06T09:10:40;23.70;93.90
39315;DHT22;28703;44.412;11.918;2023-08-06T09:13:06;23.80;94.20
39315;DHT22;28703;44.412;11.918;2023-08-06T09:15:34;23.80;93.60
39315;DHT22;28703;44.412;11.918;2023-08-06T09:18:00;23.90;93.80
39315;DHT22;28703;44.412;11.918;2023-08-06T09:20:34;23.90;93.80
39315;DHT22;28703;44.412;11.918;2023-08-06T09:23:10;24.00;93.40
39315;DHT22;28703;44.412;11.918;2023-08-06T09:25:38;24.10;93.00
39315;DHT22;28703;44.412;11.918;2023-08-06T09:28:07;24.10;92.80
39315;DHT22;28703;44.412;11.918;2023-08-06T09:30:35;24.10;91.40
39315;DHT22;28703;44.412;11.918;2023-08-06T09:33:02;24.20;90.60
39315;DHT22;28703;44.412;11.918;2023-08-06T09:35:31;24.20;90.50
39315;DHT22;28703;44.412;11.918;2023-08-06T09:38:10;24.30;89.10
39315;DHT22;28703;44.412;11.918;2023-08-06T09:40:36;24.40;89.80
39315;DHT22;28703;44.412;11.918;2023-08-06T09:43:03;24.40;86.80
39315;DHT22;28703;44.412;11.918;2023-08-06T09:45:38;24.40;87.00
39315;DHT22;28703;44.412;11.918;2023-08-06T09:48:08;24.40;86.30
39315;DHT22;28703;44.412;11.918;2023-08-06T09:50:36;24.50;85.50
39315;DHT22;28703;44.412;11.918;2023-08-06T09:53:03;24.50;86.50
39315;DHT22;28703;44.412;11.918;2023-08-06T09:55:30;24.60;86.60
39315;DHT22;28703;44.412;11.918;2023-08-06T09:57:56;24.70;86.10
39315;DHT22;28703;44.412;11.918;2023-08-06T10:00:23;24.70;86.70
39315;DHT22;28703;44.412;11.918;2023-08-06T10:02:51;24.80;86.10
39315;DHT22;28703;44.412;11.918;2023-08-06T10:05:24;24.80;84.40
39315;DHT22;28703;44.412;11.918;2023-08-06T10:07:50;24.90;83.70
39315;DHT22;28703;44.412;11.918;2023-08-06T10:10:16;24.90;84.20
39315;DHT22;28703;44.412;11.918;2023-08-06T10:12:54;24.90;84.10
39315;DHT22;28703;44.412;11.918;2023-08-06T10:15:25;25.00;84.50
39315;DHT22;28703;44.412;11.918;2023-08-06T10:17:54;25.00;85.40
39315;DHT22;28703;44.412;11.918;2023-08-06T10:20:21;25.10;84.20
39315;DHT22;28703;44.412;11.918;2023-08-06T10:23:04;25.10;85.20
39315;DHT22;28703;44.412;11.918;2023-08-06T10:25:35;25.20;84.50
39315;DHT22;28703;44.412;11.918;2023-08-06T10:28:09;25.30;85.30
39315;DHT22;28703;44.412;11.918;2023-08-06T10:30:42;25.30;85.70
39315;DHT22;28703;44.412;11.918;2023-08-06T10:33:09;25.40;83.90
39315;DHT22;28703;44.412;11.918;2023-08-06T10:38:11;25.50;83.50
39315;DHT22;28703;44.412;11.918;2023-08-06T10:40:48;25.60;82.60
39315;DHT22;28703;44.412;11.918;2023-08-06T10:43:33;25.60;83.10
39315;DHT22;28703;44.412;11.918;2023-08-06T10:46:01;25.70;83.30
39315;DHT22;28703;44.412;11.918;2023-08-06T10:48:35;25.80;84.10
39315;DHT22;28703;44.412;11.918;2023-08-06T10:51:07;25.80;83.70
39315;DHT22;28703;44.412;11.918;2023-08-06T10:53:34;25.80;83.90
39315;DHT22;28703;44.412;11.918;2023-08-06T10:56:01;25.90;82.80
39315;DHT22;28703;44.412;11.918;2023-08-06T10:58:32;25.90;83.20
39315;DHT22;28703;44.412;11.918;2023-08-06T11:00:58;26.00;83.00
39315;DHT22;28703;44.412;11.918;2023-08-06T11:03:27;26.00;82.90
39315;DHT22;28703;44.412;11.918;2023-08-06T11:05:52;26.00;82.90
39315;DHT22;28703;44.412;11.918;2023-08-06T11:08:29;26.00;83.40
39315;DHT22;28703;44.412;11.918;2023-08-06T11:10:55;26.10;83.40
39315;DHT22;28703;44.412;11.918;2023-08-06T11:13:32;26.10;83.80
39315;DHT22;28703;44.412;11.918;2023-08-06T11:15:58;26.30;84.10
39315;DHT22;28703;44.412;11.918;2023-08-06T11:18:24;26.30;83.40
39315;DHT22;28703;44.412;11.918;2023-08-06T11:20:51;26.30;83.20
39315;DHT22;28703;44.412;11.918;2023-08-06T11:23:17;26.40;83.40
39315;DHT22;28703;44.412;11.918;2023-08-06T11:25:46;26.40;82.40
39315;DHT22;28703;44.412;11.918;2023-08-06T11:28:12;26.50;82.50
39315;DHT22;28703;44.412;11.918;2023-08-06T11:30:38;26.50;83.40
39315;DHT22;28703;44.412;11.918;2023-08-06T11:33:07;26.60;82.80
39315;DHT22;28703;44.412;11.918;2023-08-06T11:35:35;26.70;83.30
39315;DHT22;28703;44.412;11.918;2023-08-06T11:38:02;26.80;83.70
39315;DHT22;28703;44.412;11.918;2023-08-06T11:40:28;26.80;82.10
39315;DHT22;28703;44.412;11.918;2023-08-06T11:42:53;26.80;82.60
39315;DHT22;28703;44.412;11.918;2023-08-06T11:45:23;26.90;82.80
39315;DHT22;28703;44.412;11.918;2023-08-06T11:47:53;26.90;83.10
39315;DHT22;28703;44.412;11.918;2023-08-06T11:50:26;26.90;83.30
39315;DHT22;28703;44.412;11.918;2023-08-06T11:52:58;26.90;83.30
39315;DHT22;28703;44.412;11.918;2023-08-06T11:55:25;26.90;84.10
39315;DHT22;28703;44.412;11.918;2023-08-06T11:57:51;26.90;84.10
39315;DHT22;28703;44.412;11.918;2023-08-06T12:00:17;27.00;84.40
39315;DHT22;28703;44.412;11.918;2023-08-06T12:02:46;27.10;83.80
39315;DHT22;28703;44.412;11.918;2023-08-06T12:05:14;27.20;83.60
39315;DHT22;28703;44.412;11.918;2023-08-06T12:07:42;27.30;82.30
39315;DHT22;28703;44.412;11.918;2023-08-06T12:10:08;27.40;82.50
39315;DHT22;28703;44.412;11.918;2023-08-06T12:12:35;27.50;82.40
39315;DHT22;28703;44.412;11.918;2023-08-06T12:15:01;27.60;81.50
39315;DHT22;28703;44.412;11.918;2023-08-06T12:17:27;27.70;78.20
39315;DHT22;28703;44.412;11.918;2023-08-06T12:19:53;27.70;77.10
39315;DHT22;28703;44.412;11.918;2023-08-06T12:22:19;27.80;76.50
39315;DHT22;28703;44.412;11.918;2023-08-06T12:24:46;27.90;76.30
39315;DHT22;28703;44.412;11.918;2023-08-06T12:27:13;27.90;77.00
39315;DHT22;28703;44.412;11.918;2023-08-06T12:29:44;28.00;77.00
39315;DHT22;28703;44.412;11.918;2023-08-06T12:32:11;28.10;75.10
39315;DHT22;28703;44.412;11.918;2023-08-06T12:34:41;28.00;75.00
39315;DHT22;28703;44.412;11.918;2023-08-06T12:37:08;27.90;75.50
39315;DHT22;28703;44.412;11.918;2023-08-06T12:39:35;28.00;74.60
39315;DHT22;28703;44.412;11.918;2023-08-06T12:42:02;28.00;75.20
39315;DHT22;28703;44.412;11.918;2023-08-06T12:44:28;28.00;75.60
39315;DHT22;28703;44.412;11.918;2023-08-06T12:46:54;28.00;76.00
39315;DHT22;28703;44.412;11.918;2023-08-06T12:49:20;28.00;76.00
39315;DHT22;28703;44.412;11.918;2023-08-06T12:51:50;28.00;77.40
39315;DHT22;28703;44.412;11.918;2023-08-06T12:54:20;28.10;77.90
39315;DHT22;28703;44.412;11.918;2023-08-06T12:56:46;28.10;78.60
39315;DHT22;28703;44.412;11.918;2023-08-06T12:59:15;28.30;78.40
39315;DHT22;28703;44.412;11.918;2023-08-06T13:01:41;28.30;78.70
39315;DHT22;28703;44.412;11.918;2023-08-06T13:04:07;28.40;78.00
39315;DHT22;28703;44.412;11.918;2023-08-06T13:06:33;28.40;69.10
39315;DHT22;28703;44.412;11.918;2023-08-06T13:09:06;28.30;67.30
39315;DHT22;28703;44.412;11.918;2023-08-06T13:11:34;28.40;68.60
39315;DHT22;28703;44.412;11.918;2023-08-06T13:14:09;28.50;68.20
39315;DHT22;28703;44.412;11.918;2023-08-06T13:16:36;28.60;68.30
39315;DHT22;28703;44.412;11.918;2023-08-06T13:19:03;28.70;68.70
39315;DHT22;28703;44.412;11.918;2023-08-06T13:21:34;28.80;67.80
39315;DHT22;28703;44.412;11.918;2023-08-06T13:24:03;28.90;67.30
39315;DHT22;28703;44.412;11.918;2023-08-06T13:26:30;28.90;68.30
39315;DHT22;28703;44.412;11.918;2023-08-06T13:28:59;29.00;68.60
39315;DHT22;28703;44.412;11.918;2023-08-06T13:31:26;29.30;69.50
39315;DHT22;28703;44.412;11.918;2023-08-06T13:33:54;29.30;68.80
39315;DHT22;28703;44.412;11.918;2023-08-06T13:36:21;29.50;69.00
39315;DHT22;28703;44.412;11.918;2023-08-06T13:38:48;29.60;68.80
39315;DHT22;28703;44.412;11.918;2023-08-06T13:41:14;29.80;68.20
39315;DHT22;28703;44.412;11.918;2023-08-06T13:43:40;29.80;66.30
39315;DHT22;28703;44.412;11.918;2023-08-06T13:46:06;29.60;66.80
39315;DHT22;28703;44.412;11.918;2023-08-06T13:48:32;29.60;66.80
39315;DHT22;28703;44.412;11.918;2023-08-06T13:50:58;29.70;67.10
39315;DHT22;28703;44.412;11.918;2023-08-06T13:53:24;29.90;67.10
39315;DHT22;28703;44.412;11.918;2023-08-06T13:55:55;29.90;66.50
39315;DHT22;28703;44.412;11.918;2023-08-06T13:58:22;29.80;65.90
39315;DHT22;28703;44.412;11.918;2023-08-06T14:00:49;29.80;65.60
39315;DHT22;28703;44.412;11.918;2023-08-06T14:03:15;29.80;65.90
39315;DHT22;28703;44.412;11.918;2023-08-06T14:05:41;29.80;66.60
39315;DHT22;28703;44.412;11.918;2023-08-06T14:08:07;29.80;65.50
39315;DHT22;28703;44.412;11.918;2023-08-06T14:10:33;29.70;65.50
39315;DHT22;28703;44.412;11.918;2023-08-06T14:12:59;29.80;65.30
39315;DHT22;28703;44.412;11.918;2023-08-06T14:15:24;29.80;65.50
39315;DHT22;28703;44.412;11.918;2023-08-06T14:17:50;29.80;65.40
39315;DHT22;28703;44.412;11.918;2023-08-06T14:20:16;29.90;66.00
39315;DHT22;28703;44.412;11.918;2023-08-06T14:22:42;29.90;65.50
39315;DHT22;28703;44.412;11.918;2023-08-06T14:25:08;30.00;65.60
39315;DHT22;28703;44.412;11.918;2023-08-06T14:27:34;30.00;65.20
39315;DHT22;28703;44.412;11.918;2023-08-06T14:30:00;30.10;65.70
39315;DHT22;28703;44.412;11.918;2023-08-06T14:32:28;30.10;64.30
39315;DHT22;28703;44.412;11.918;2023-08-06T14:34:54;30.10;65.00
39315;DHT22;28703;44.412;11.918;2023-08-06T14:37:20;30.20;65.10
39315;DHT22;28703;44.412;11.918;2023-08-06T14:39:46;30.00;63.80
39315;DHT22;28703;44.412;11.918;2023-08-06T14:42:12;29.90;64.00
39315;DHT22;28703;44.412;11.918;2023-08-06T14:44:37;29.90;63.50
39315;DHT22;28703;44.412;11.918;2023-08-06T14:47:03;29.80;63.60
39315;DHT22;28703;44.412;11.918;2023-08-06T14:49:29;29.80;63.90
39315;DHT22;28703;44.412;11.918;2023-08-06T14:51:55;29.70;64.90
39315;DHT22;28703;44.412;11.918;2023-08-06T14:54:24;29.80;67.50
39315;DHT22;28703;44.412;11.918;2023-08-06T14:56:50;30.00;69.10
39315;DHT22;28703;44.412;11.918;2023-08-06T14:59:16;30.00;71.40
39315;DHT22;28703;44.412;11.918;2023-08-06T15:01:42;29.90;72.70
39315;DHT22;28703;44.412;11.918;2023-08-06T15:04:08;29.90;72.50
39315;DHT22;28703;44.412;11.918;2023-08-06T15:06:33;29.90;69.30
39315;DHT22;28703;44.412;11.918;2023-08-06T15:08:59;29.90;67.00
39315;DHT22;28703;44.412;11.918;2023-08-06T15:11:26;29.90;66.20
39315;DHT22;28703;44.412;11.918;2023-08-06T15:13:52;30.10;63.90
39315;DHT22;28703;44.412;11.918;2023-08-06T15:16:18;30.20;64.00
39315;DHT22;28703;44.412;11.918;2023-08-06T15:18:44;30.40;63.40
39315;DHT22;28703;44.412;11.918;2023-08-06T15:21:10;30.50;62.40
39315;DHT22;28703;44.412;11.918;2023-08-06T15:23:36;30.70;61.70